sensor_id;sensor_type;location;lat;lon;timestamp;temperature;humidity
23715;DHT22;12036;50.858;4.472;2023-07-08T00:00:20;18.10;99.90
23715;DHT22;12036;50.858;4.472;2023-07-08T00:02:46;18.10;99.90
23715;DHT22;12036;50.858;4.472;2023-07-08T00:05:13;18.10;99.90
23715;DHT22;12036;50.858;4.472;2023-07-08T00:07:40;18.00;99.90
23715;DHT22;12036;50.858;4.472;2023-07-08T00:10:16;18.00;99.90
23715;DHT22;12036;50.858;4.472;2023-07-08T00:12:44;18.00;99.90
23715;DHT22;12036;50.858;4.472;2023-07-08T00:15:10;18.00;99.90
23715;DHT22;12036;50.858;4.472;2023-07-08T00:17:36;17.90;99.90
23715;DHT22;12036;50.858;4.472;2023-07-08T00:22:55;17.90;99.90
23715;DHT22;12036;50.858;4.472;2023-07-08T00:25:22;17.80;99.90
23715;DHT22;12036;50.858;4.472;2023-07-08T00:27:48;17.80;99.90
23715;DHT22;12036;50.858;4.472;2023-07-08T00:30:19;17.80;99.90
23715;DHT22;12036;50.858;4.472;2023-07-08T00:32:46;17.80;99.90
23715;DHT22;12036;50.858;4.472;2023-07-08T00:35:11;17.80;99.90
23715;DHT22;12036;50.858;4.472;2023-07-08T00:37:37;17.70;99.90
23715;DHT22;12036;50.858;4.472;2023-07-08T00:40:32;17.70;99.90
23715;DHT22;12036;50.858;4.472;2023-07-08T00:43:01;17.70;99.90
23715;DHT22;12036;50.858;4.472;2023-07-08T00:45:41;17.70;99.90
23715;DHT22;12036;50.858;4.472;2023-07-08T00:48:16;17.60;99.90
23715;DHT22;12036;50.858;4.472;2023-07-08T00:50:43;17.60;99.90
23715;DHT22;12036;50.858;4.472;2023-07-08T00:53:30;17.50;99.90
23715;DHT22;12036;50.858;4.472;2023-07-08T00:58:36;17.50;99.90
23715;DHT22;12036;50.858;4.472;2023-07-08T01:01:05;17.50;99.90
23715;DHT22;12036;50.858;4.472;2023-07-08T01:03:31;17.40;99.90
23715;DHT22;12036;50.858;4.472;2023-07-08T01:05:58;17.40;99.90
23715;DHT22;12036;50.858;4.472;2023-07-08T01:08:28;17.30;99.90
23715;DHT22;12036;50.858;4.472;2023-07-08T01:10:59;17.30;99.90
23715;DHT22;12036;50.858;4.472;2023-07-08T01:13:28;17.40;99.90
23715;DHT22;12036;50.858;4.472;2023-07-08T01:15:56;17.30;99.90
23715;DHT22;12036;50.858;4.472;2023-07-08T01:18:22;17.30;99.90
23715;DHT22;12036;50.858;4.472;2023-07-08T01:20:48;17.30;99.90
23715;DHT22;12036;50.858;4.472;2023-07-08T01:23:13;17.30;99.90
23715;DHT22;12036;50.858;4.472;2023-07-08T01:25:41;17.20;99.90
23715;DHT22;12036;50.858;4.472;2023-07-08T01:28:08;17.30;99.90
23715;DHT22;12036;50.858;4.472;2023-07-08T01:30:35;17.20;99.90
23715;DHT22;12036;50.858;4.472;2023-07-08T01:33:05;17.20;99.90
23715;DHT22;12036;50.858;4.472;2023-07-08T01:35:33;17.20;99.90
23715;DHT22;12036;50.858;4.472;2023-07-08T01:38:01;17.10;99.90
23715;DHT22;12036;50.858;4.472;2023-07-08T01:40:31;17.10;99.90
23715;DHT22;12036;50.858;4.472;2023-07-08T01:42:58;17.10;99.90
23715;DHT22;12036;50.858;4.472;2023-07-08T01:45:26;17.00;99.90
23715;DHT22;12036;50.858;4.472;2023-07-08T01:48:14;17.00;99.90
23715;DHT22;12036;50.858;4.472;2023-07-08T01:50:56;17.00;99.90
23715;DHT22;12036;50.858;4.472;2023-07-08T01:53:39;16.90;99.90
23715;DHT22;12036;50.858;4.472;2023-07-08T01:56:06;16.90;99.90
23715;DHT22;12036;50.858;4.472;2023-07-08T01:58:33;16.90;99.90
23715;DHT22;12036;50.858;4.472;2023-07-08T02:00:59;16.90;99.90
23715;DHT22;12036;50.858;4.472;2023-07-08T02:03:26;16.90;99.90
23715;DHT22;12036;50.858;4.472;2023-07-08T02:05:52;16.80;99.90
23715;DHT22;12036;50.858;4.472;2023-07-08T02:08:18;16.80;99.90
23715;DHT22;12036;50.858;4.472;2023-07-08T02:10:46;16.90;99.90
23715;DHT22;12036;50.858;4.472;2023-07-08T02:13:11;16.80;99.90
23715;DHT22;12036;50.858;4.472;2023-07-08T02:15:37;16.70;99.90
23715;DHT22;12036;50.858;4.472;2023-07-08T02:18:02;16.80;99.90
23715;DHT22;12036;50.858;4.472;2023-07-08T02:20:28;16.70;99.90
23715;DHT22;12036;50.858;4.472;2023-07-08T02:22:54;16.70;99.90
23715;DHT22;12036;50.858;4.472;2023-07-08T02:25:20;16.60;99.90
23715;DHT22;12036;50.858;4.472;2023-07-08T02:27:45;16.70;99.90
23715;DHT22;12036;50.858;4.472;2023-07-08T02:30:11;16.70;99.90
23715;DHT22;12036;50.858;4.472;2023-07-08T02:32:36;16.60;99.90
23715;DHT22;12036;50.858;4.472;2023-07-08T02:35:05;16.60;99.90
23715;DHT22;12036;50.858;4.472;2023-07-08T02:37:31;16.60;99.90
23715;DHT22;12036;50.858;4.472;2023-07-08T02:39:58;16.60;99.90
23715;DHT22;12036;50.858;4.472;2023-07-08T02:42:24;16.50;99.90
23715;DHT22;12036;50.858;4.472;2023-07-08T02:44:49;16.60;99.90
23715;DHT22;12036;50.858;4.472;2023-07-08T02:47:15;16.60;99.90
23715;DHT22;12036;50.858;4.472;2023-07-08T02:49:41;16.60;99.90
23715;DHT22;12036;50.858;4.472;2023-07-08T02:52:06;16.60;99.90
23715;DHT22;12036;50.858;4.472;2023-07-08T02:54:32;16.60;99.90
23715;DHT22;12036;50.858;4.472;2023-07-08T02:56:58;16.70;99.90
23715;DHT22;12036;50.858;4.472;2023-07-08T02:59:23;16.70;99.90
23715;DHT22;12036;50.858;4.472;2023-07-08T03:01:49;16.70;99.90
23715;DHT22;12036;50.858;4.472;2023-07-08T03:04:15;16.70;99.90
23715;DHT22;12036;50.858;4.472;2023-07-08T03:06:42;16.80;99.90
23715;DHT22;12036;50.858;4.472;2023-07-08T03:09:09;16.70;99.90
23715;DHT22;12036;50.858;4.472;2023-07-08T03:11:35;16.80;99.90
23715;DHT22;12036;50.858;4.472;2023-07-08T03:14:01;16.80;99.90
23715;DHT22;12036;50.858;4.472;2023-07-08T03:16:27;16.80;99.90
23715;DHT22;12036;50.858;4.472;2023-07-08T03:18:53;16.80;99.90
23715;DHT22;12036;50.858;4.472;2023-07-08T03:21:19;16.80;99.90
23715;DHT22;12036;50.858;4.472;2023-07-08T03:23:45;16.90;99.90
23715;DHT22;12036;50.858;4.472;2023-07-08T03:26:22;16.90;99.90
23715;DHT22;12036;50.858;4.472;2023-07-08T03:28:49;16.90;99.90
23715;DHT22;12036;50.858;4.472;2023-07-08T03:31:15;16.90;99.90
23715;DHT22;12036;50.858;4.472;2023-07-08T03:33:41;16.90;99.90
23715;DHT22;12036;50.858;4.472;2023-07-08T03:36:13;16.80;99.90
23715;DHT22;12036;50.858;4.472;2023-07-08T03:38:51;16.90;99.90
23715;DHT22;12036;50.858;4.472;2023-07-08T03:41:17;16.80;99.90
23715;DHT22;12036;50.858;4.472;2023-07-08T03:43:42;16.80;99.90
23715;DHT22;12036;50.858;4.472;2023-07-08T03:46:18;16.80;99.90
23715;DHT22;12036;50.858;4.472;2023-07-08T03:48:45;16.80;99.90
23715;DHT22;12036;50.858;4.472;2023-07-08T03:51:29;16.80;99.90
23715;DHT22;12036;50.858;4.472;2023-07-08T03:53:55;16.80;99.90
23715;DHT22;12036;50.858;4.472;2023-07-08T03:56:20;16.80;99.90
23715;DHT22;12036;50.858;4.472;2023-07-08T03:58:46;16.80;99.90
23715;DHT22;12036;50.858;4.472;2023-07-08T04:01:20;16.80;99.90
23715;DHT22;12036;50.858;4.472;2023-07-08T04:03:47;16.80;99.90
23715;DHT22;12036;50.858;4.472;2023-07-08T04:06:14;16.70;99.90
23715;DHT22;12036;50.858;4.472;2023-07-08T04:08:39;16.70;99.90
23715;DHT22;12036;50.858;4.472;2023-07-08T04:11:05;16.70;99.90
23715;DHT22;12036;50.858;4.472;2023-07-08T04:13:32;16.80;99.90
23715;DHT22;12036;50.858;4.472;2023-07-08T04:16:02;16.80;99.90
23715;DHT22;12036;50.858;4.472;2023-07-08T04:18:29;16.80;99.90
23715;DHT22;12036;50.858;4.472;2023-07-08T04:20:54;16.90;99.90
23715;DHT22;12036;50.858;4.472;2023-07-08T04:23:21;16.90;99.90
23715;DHT22;12036;50.858;4.472;2023-07-08T04:25:48;16.90;99.90
23715;DHT22;12036;50.858;4.472;2023-07-08T04:28:14;16.90;99.90
23715;DHT22;12036;50.858;4.472;2023-07-08T04:30:42;17.00;99.90
23715;DHT22;12036;50.858;4.472;2023-07-08T04:33:08;17.10;99.90
23715;DHT22;12036;50.858;4.472;2023-07-08T04:35:35;17.10;99.90
23715;DHT22;12036;50.858;4.472;2023-07-08T04:38:02;17.20;99.90
23715;DHT22;12036;50.858;4.472;2023-07-08T04:40:37;17.20;99.90
23715;DHT22;12036;50.858;4.472;2023-07-08T04:43:05;17.30;99.90
23715;DHT22;12036;50.858;4.472;2023-07-08T04:45:31;17.40;99.90
23715;DHT22;12036;50.858;4.472;2023-07-08T04:47:57;17.40;99.90
23715;DHT22;12036;50.858;4.472;2023-07-08T04:50:22;17.50;99.90
23715;DHT22;12036;50.858;4.472;2023-07-08T04:52:48;17.80;99.90
23715;DHT22;12036;50.858;4.472;2023-07-08T04:55:15;18.60;99.90
23715;DHT22;12036;50.858;4.472;2023-07-08T04:57:41;19.80;99.90
23715;DHT22;12036;50.858;4.472;2023-07-08T05:00:08;20.80;99.90
23715;DHT22;12036;50.858;4.472;2023-07-08T05:02:36;21.60;99.90
23715;DHT22;12036;50.858;4.472;2023-07-08T05:05:02;21.80;99.90
23715;DHT22;12036;50.858;4.472;2023-07-08T05:07:28;21.70;99.90
23715;DHT22;12036;50.858;4.472;2023-07-08T05:09:53;21.40;99.90
23715;DHT22;12036;50.858;4.472;2023-07-08T05:12:19;21.30;99.90
23715;DHT22;12036;50.858;4.472;2023-07-08T05:14:44;21.20;99.90
23715;DHT22;12036;50.858;4.472;2023-07-08T05:17:10;21.50;99.90
23715;DHT22;12036;50.858;4.472;2023-07-08T05:19:36;21.50;99.90
23715;DHT22;12036;50.858;4.472;2023-07-08T05:22:01;21.50;99.90
23715;DHT22;12036;50.858;4.472;2023-07-08T05:24:27;21.60;99.90
23715;DHT22;12036;50.858;4.472;2023-07-08T05:26:53;22.10;99.90
23715;DHT22;12036;50.858;4.472;2023-07-08T05:29:19;23.40;99.90
23715;DHT22;12036;50.858;4.472;2023-07-08T05:31:44;25.10;99.90
23715;DHT22;12036;50.858;4.472;2023-07-08T05:34:10;26.70;96.40
23715;DHT22;12036;50.858;4.472;2023-07-08T05:36:35;27.90;93.10
23715;DHT22;12036;50.858;4.472;2023-07-08T05:39:01;28.40;90.90
23715;DHT22;12036;50.858;4.472;2023-07-08T05:41:27;28.40;89.60
23715;DHT22;12036;50.858;4.472;2023-07-08T05:43:52;28.10;88.10
23715;DHT22;12036;50.858;4.472;2023-07-08T05:46:18;27.90;87.40
23715;DHT22;12036;50.858;4.472;2023-07-08T05:48:43;27.70;87.60
23715;DHT22;12036;50.858;4.472;2023-07-08T05:51:09;27.70;87.60
23715;DHT22;12036;50.858;4.472;2023-07-08T05:53:35;28.00;87.00
23715;DHT22;12036;50.858;4.472;2023-07-08T05:56:02;29.00;85.20
23715;DHT22;12036;50.858;4.472;2023-07-08T05:58:28;30.20;82.00
23715;DHT22;12036;50.858;4.472;2023-07-08T06:00:56;31.30;77.80
23715;DHT22;12036;50.858;4.472;2023-07-08T06:03:22;32.00;74.90
23715;DHT22;12036;50.858;4.472;2023-07-08T06:05:48;32.30;70.30
23715;DHT22;12036;50.858;4.472;2023-07-08T06:08:14;31.90;69.60
23715;DHT22;12036;50.858;4.472;2023-07-08T06:10:44;30.90;70.70
23715;DHT22;12036;50.858;4.472;2023-07-08T06:13:11;29.70;74.10
23715;DHT22;12036;50.858;4.472;2023-07-08T06:15:37;29.00;74.80
23715;DHT22;12036;50.858;4.472;2023-07-08T06:18:02;28.40;75.70
23715;DHT22;12036;50.858;4.472;2023-07-08T06:20:29;28.40;77.80
23715;DHT22;12036;50.858;4.472;2023-07-08T06:22:54;28.90;76.90
23715;DHT22;12036;50.858;4.472;2023-07-08T06:25:20;29.80;75.90
23715;DHT22;12036;50.858;4.472;2023-07-08T06:27:46;31.10;69.60
23715;DHT22;12036;50.858;4.472;2023-07-08T06:30:11;32.10;67.80
23715;DHT22;12036;50.858;4.472;2023-07-08T06:32:37;33.50;64.70
23715;DHT22;12036;50.858;4.472;2023-07-08T06:35:03;34.30;63.40
23715;DHT22;12036;50.858;4.472;2023-07-08T06:37:29;34.80;63.00
23715;DHT22;12036;50.858;4.472;2023-07-08T06:39:54;35.10;58.80
23715;DHT22;12036;50.858;4.472;2023-07-08T06:42:20;35.00;59.60
23715;DHT22;12036;50.858;4.472;2023-07-08T06:44:46;35.40;59.00
23715;DHT22;12036;50.858;4.472;2023-07-08T06:47:19;35.40;58.50
23715;DHT22;12036;50.858;4.472;2023-07-08T06:49:46;35.10;58.00
23715;DHT22;12036;50.858;4.472;2023-07-08T06:52:12;34.60;59.10
23715;DHT22;12036;50.858;4.472;2023-07-08T06:54:38;35.00;58.80
23715;DHT22;12036;50.858;4.472;2023-07-08T06:57:03;36.10;56.00
23715;DHT22;12036;50.858;4.472;2023-07-08T06:59:29;36.60;54.60
23715;DHT22;12036;50.858;4.472;2023-07-08T07:01:55;36.20;54.50
23715;DHT22;12036;50.858;4.472;2023-07-08T07:04:20;35.90;55.00
23715;DHT22;12036;50.858;4.472;2023-07-08T07:06:47;35.50;55.70
23715;DHT22;12036;50.858;4.472;2023-07-08T07:09:12;34.40;56.90
23715;DHT22;12036;50.858;4.472;2023-07-08T07:11:38;33.50;57.30
23715;DHT22;12036;50.858;4.472;2023-07-08T07:14:03;32.50;58.60
23715;DHT22;12036;50.858;4.472;2023-07-08T07:16:29;31.80;59.80
23715;DHT22;12036;50.858;4.472;2023-07-08T07:18:55;31.40;60.20
23715;DHT22;12036;50.858;4.472;2023-07-08T07:21:21;30.80;61.40
23715;DHT22;12036;50.858;4.472;2023-07-08T07:23:46;30.20;65.00
23715;DHT22;12036;50.858;4.472;2023-07-08T07:26:12;29.80;67.80
23715;DHT22;12036;50.858;4.472;2023-07-08T07:28:38;29.70;65.10
23715;DHT22;12036;50.858;4.472;2023-07-08T07:31:04;29.30;67.50
23715;DHT22;12036;50.858;4.472;2023-07-08T07:33:31;29.10;66.60
23715;DHT22;12036;50.858;4.472;2023-07-08T07:35:57;29.10;66.60
23715;DHT22;12036;50.858;4.472;2023-07-08T07:38:23;29.20;65.90
23715;DHT22;12036;50.858;4.472;2023-07-08T07:40:54;29.00;67.80
23715;DHT22;12036;50.858;4.472;2023-07-08T07:43:20;28.70;69.60
23715;DHT22;12036;50.858;4.472;2023-07-08T07:45:49;28.60;68.40
23715;DHT22;12036;50.858;4.472;2023-07-08T07:48:15;28.50;70.50
23715;DHT22;12036;50.858;4.472;2023-07-08T07:50:45;28.40;70.60
23715;DHT22;12036;50.858;4.472;2023-07-08T07:53:11;28.30;70.30
23715;DHT22;12036;50.858;4.472;2023-07-08T07:55:37;28.30;71.40
23715;DHT22;12036;50.858;4.472;2023-07-08T07:58:02;28.70;70.00
23715;DHT22;12036;50.858;4.472;2023-07-08T08:00:28;29.20;68.10
23715;DHT22;12036;50.858;4.472;2023-07-08T08:02:55;29.60;66.40
23715;DHT22;12036;50.858;4.472;2023-07-08T08:05:21;29.40;69.30
23715;DHT22;12036;50.858;4.472;2023-07-08T08:07:47;29.00;69.80
23715;DHT22;12036;50.858;4.472;2023-07-08T08:10:13;28.80;70.30
23715;DHT22;12036;50.858;4.472;2023-07-08T08:12:39;28.70;70.90
23715;DHT22;12036;50.858;4.472;2023-07-08T08:15:05;28.70;69.90
23715;DHT22;12036;50.858;4.472;2023-07-08T08:17:31;28.70;68.80
23715;DHT22;12036;50.858;4.472;2023-07-08T08:19:56;28.70;68.10
23715;DHT22;12036;50.858;4.472;2023-07-08T08:22:22;28.70;69.30
23715;DHT22;12036;50.858;4.472;2023-07-08T08:24:47;28.60;69.30
23715;DHT22;12036;50.858;4.472;2023-07-08T08:27:13;28.60;69.30
23715;DHT22;12036;50.858;4.472;2023-07-08T08:29:39;28.50;63.10
23715;DHT22;12036;50.858;4.472;2023-07-08T08:32:04;28.30;60.80
23715;DHT22;12036;50.858;4.472;2023-07-08T08:34:30;28.20;60.70
23715;DHT22;12036;50.858;4.472;2023-07-08T08:36:57;28.20;61.40
23715;DHT22;12036;50.858;4.472;2023-07-08T08:39:23;28.10;62.10
23715;DHT22;12036;50.858;4.472;2023-07-08T08:41:50;28.10;61.90
23715;DHT22;12036;50.858;4.472;2023-07-08T08:44:30;28.00;63.60
23715;DHT22;12036;50.858;4.472;2023-07-08T08:52:41;28.50;64.90
23715;DHT22;12036;50.858;4.472;2023-07-08T08:55:12;28.60;64.50
23715;DHT22;12036;50.858;4.472;2023-07-08T08:57:45;28.70;64.20
23715;DHT22;12036;50.858;4.472;2023-07-08T09:00:18;28.70;63.40
23715;DHT22;12036;50.858;4.472;2023-07-08T09:03:16;28.70;62.40
23715;DHT22;12036;50.858;4.472;2023-07-08T09:05:45;28.60;63.30
23715;DHT22;12036;50.858;4.472;2023-07-08T09:08:16;28.70;63.40
23715;DHT22;12036;50.858;4.472;2023-07-08T09:10:57;28.90;63.60
23715;DHT22;12036;50.858;4.472;2023-07-08T09:13:41;29.00;63.20
23715;DHT22;12036;50.858;4.472;2023-07-08T09:18:56;29.10;64.00
23715;DHT22;12036;50.858;4.472;2023-07-08T09:24:29;29.30;62.00
23715;DHT22;12036;50.858;4.472;2023-07-08T09:26:57;29.40;60.40
23715;DHT22;12036;50.858;4.472;2023-07-08T09:29:26;29.60;60.50
23715;DHT22;12036;50.858;4.472;2023-07-08T09:31:52;29.70;60.30
23715;DHT22;12036;50.858;4.472;2023-07-08T09:34:22;29.70;61.80
23715;DHT22;12036;50.858;4.472;2023-07-08T09:36:49;29.70;60.00
23715;DHT22;12036;50.858;4.472;2023-07-08T09:39:17;29.70;60.70
23715;DHT22;12036;50.858;4.472;2023-07-08T09:41:45;29.80;60.80
23715;DHT22;12036;50.858;4.472;2023-07-08T09:44:28;29.90;61.50
23715;DHT22;12036;50.858;4.472;2023-07-08T09:46:58;30.30;60.60
23715;DHT22;12036;50.858;4.472;2023-07-08T09:51:54;31.00;59.90
23715;DHT22;12036;50.858;4.472;2023-07-08T09:54:22;31.30;58.50
23715;DHT22;12036;50.858;4.472;2023-07-08T09:59:28;32.00;58.30
23715;DHT22;12036;50.858;4.472;2023-07-08T10:01:56;32.30;58.20
23715;DHT22;12036;50.858;4.472;2023-07-08T10:04:21;32.80;55.60
23715;DHT22;12036;50.858;4.472;2023-07-08T10:06:47;33.10;55.90
23715;DHT22;12036;50.858;4.472;2023-07-08T10:09:20;33.40;57.20
23715;DHT22;12036;50.858;4.472;2023-07-08T10:11:54;33.80;57.20
23715;DHT22;12036;50.858;4.472;2023-07-08T10:14:28;34.80;55.80
23715;DHT22;12036;50.858;4.472;2023-07-08T10:16:55;35.90;54.70
23715;DHT22;12036;50.858;4.472;2023-07-08T10:19:21;36.60;52.40
23715;DHT22;12036;50.858;4.472;2023-07-08T10:41:40;40.70;46.30
23715;DHT22;12036;50.858;4.472;2023-07-08T10:50:29;40.70;47.40
23715;DHT22;12036;50.858;4.472;2023-07-08T10:53:30;41.00;45.00
23715;DHT22;12036;50.858;4.472;2023-07-08T10:56:13;40.90;45.70
23715;DHT22;12036;50.858;4.472;2023-07-08T10:58:52;40.90;44.50
23715;DHT22;12036;50.858;4.472;2023-07-08T11:04:42;40.70;45.20
23715;DHT22;12036;50.858;4.472;2023-07-08T11:07:38;40.70;44.60
23715;DHT22;12036;50.858;4.472;2023-07-08T11:10:14;41.10;44.30
23715;DHT22;12036;50.858;4.472;2023-07-08T11:15:29;40.90;44.10
23715;DHT22;12036;50.858;4.472;2023-07-08T11:18:05;40.80;45.60
23715;DHT22;12036;50.858;4.472;2023-07-08T11:20:44;40.20;46.60
23715;DHT22;12036;50.858;4.472;2023-07-08T11:25:43;39.70;45.40
23715;DHT22;12036;50.858;4.472;2023-07-08T11:28:15;39.70;45.40
23715;DHT22;12036;50.858;4.472;2023-07-08T11:30:44;40.00;46.70
23715;DHT22;12036;50.858;4.472;2023-07-08T11:33:12;40.10;44.90
23715;DHT22;12036;50.858;4.472;2023-07-08T11:35:53;40.20;45.00
23715;DHT22;12036;50.858;4.472;2023-07-08T11:38:24;39.90;47.60
23715;DHT22;12036;50.858;4.472;2023-07-08T11:43:16;39.90;45.80
23715;DHT22;12036;50.858;4.472;2023-07-08T11:45:43;39.80;46.20
23715;DHT22;12036;50.858;4.472;2023-07-08T11:48:30;39.40;47.50
23715;DHT22;12036;50.858;4.472;2023-07-08T11:50:57;39.30;47.60
23715;DHT22;12036;50.858;4.472;2023-07-08T11:53:50;38.80;48.80
23715;DHT22;12036;50.858;4.472;2023-07-08T12:01:20;38.10;47.00
23715;DHT22;12036;50.858;4.472;2023-07-08T12:03:49;37.60;48.10
23715;DHT22;12036;50.858;4.472;2023-07-08T12:08:54;36.70;47.90
23715;DHT22;12036;50.858;4.472;2023-07-08T12:11:31;36.50;50.10
23715;DHT22;12036;50.858;4.472;2023-07-08T12:13:59;36.00;49.40
23715;DHT22;12036;50.858;4.472;2023-07-08T12:16:27;35.80;49.90
23715;DHT22;12036;50.858;4.472;2023-07-08T12:18:54;35.60;50.00
23715;DHT22;12036;50.858;4.472;2023-07-08T12:21:23;35.70;49.80
23715;DHT22;12036;50.858;4.472;2023-07-08T12:23:51;35.80;49.50
23715;DHT22;12036;50.858;4.472;2023-07-08T12:26:17;35.80;50.40
23715;DHT22;12036;50.858;4.472;2023-07-08T12:28:44;35.90;49.50
23715;DHT22;12036;50.858;4.472;2023-07-08T12:31:20;36.00;51.50
23715;DHT22;12036;50.858;4.472;2023-07-08T12:33:47;35.90;50.40
23715;DHT22;12036;50.858;4.472;2023-07-08T12:36:25;35.80;49.80
23715;DHT22;12036;50.858;4.472;2023-07-08T12:38:54;35.60;52.60
23715;DHT22;12036;50.858;4.472;2023-07-08T12:41:26;35.20;51.80
23715;DHT22;12036;50.858;4.472;2023-07-08T12:43:52;34.80;50.90
23715;DHT22;12036;50.858;4.472;2023-07-08T12:46:20;34.50;51.10
23715;DHT22;12036;50.858;4.472;2023-07-08T12:48:47;34.00;51.70
23715;DHT22;12036;50.858;4.472;2023-07-08T12:51:21;33.70;51.50
23715;DHT22;12036;50.858;4.472;2023-07-08T12:53:51;33.10;53.10
23715;DHT22;12036;50.858;4.472;2023-07-08T12:56:20;32.10;54.50
23715;DHT22;12036;50.858;4.472;2023-07-08T12:58:51;31.20;55.60
23715;DHT22;12036;50.858;4.472;2023-07-08T13:01:22;30.60;56.20
23715;DHT22;12036;50.858;4.472;2023-07-08T13:03:52;30.00;58.50
23715;DHT22;12036;50.858;4.472;2023-07-08T13:06:21;29.30;63.70
23715;DHT22;12036;50.858;4.472;2023-07-08T13:08:48;28.00;70.30
23715;DHT22;12036;50.858;4.472;2023-07-08T13:11:16;26.30;71.90
23715;DHT22;12036;50.858;4.472;2023-07-08T13:13:50;24.70;79.40
23715;DHT22;12036;50.858;4.472;2023-07-08T13:16:16;23.50;91.80
23715;DHT22;12036;50.858;4.472;2023-07-08T13:18:43;22.70;99.90
23715;DHT22;12036;50.858;4.472;2023-07-08T13:21:14;22.20;99.90
23715;DHT22;12036;50.858;4.472;2023-07-08T13:23:41;22.00;99.90
23715;DHT22;12036;50.858;4.472;2023-07-08T13:26:37;21.80;99.90
23715;DHT22;12036;50.858;4.472;2023-07-08T13:29:17;21.60;99.90
23715;DHT22;12036;50.858;4.472;2023-07-08T13:31:49;21.60;99.90
23715;DHT22;12036;50.858;4.472;2023-07-08T13:34:17;21.70;99.90
23715;DHT22;12036;50.858;4.472;2023-07-08T13:36:45;21.80;99.90
23715;DHT22;12036;50.858;4.472;2023-07-08T13:39:25;21.90;99.90
23715;DHT22;12036;50.858;4.472;2023-07-08T13:41:51;22.20;99.90
23715;DHT22;12036;50.858;4.472;2023-07-08T13:44:17;22.30;99.90
23715;DHT22;12036;50.858;4.472;2023-07-08T13:46:53;22.50;99.90
23715;DHT22;12036;50.858;4.472;2023-07-08T13:52:25;22.70;99.90
23715;DHT22;12036;50.858;4.472;2023-07-08T13:54:58;22.80;99.90
23715;DHT22;12036;50.858;4.472;2023-07-08T13:57:31;23.10;99.90
23715;DHT22;12036;50.858;4.472;2023-07-08T13:59:57;23.40;99.90
23715;DHT22;12036;50.858;4.472;2023-07-08T14:02:30;23.60;99.90
23715;DHT22;12036;50.858;4.472;2023-07-08T14:04:57;24.00;99.90
23715;DHT22;12036;50.858;4.472;2023-07-08T14:07:28;24.30;99.90
23715;DHT22;12036;50.858;4.472;2023-07-08T14:09:54;24.80;99.90
23715;DHT22;12036;50.858;4.472;2023-07-08T14:12:20;25.40;99.90
23715;DHT22;12036;50.858;4.472;2023-07-08T14:14:48;25.70;99.90
23715;DHT22;12036;50.858;4.472;2023-07-08T14:17:21;25.90;99.90
23715;DHT22;12036;50.858;4.472;2023-07-08T14:19:47;26.30;99.90
23715;DHT22;12036;50.858;4.472;2023-07-08T14:24:40;26.70;99.90
23715;DHT22;12036;50.858;4.472;2023-07-08T14:27:07;26.80;99.90
23715;DHT22;12036;50.858;4.472;2023-07-08T14:29:37;26.90;99.90
23715;DHT22;12036;50.858;4.472;2023-07-08T14:32:03;26.90;99.90
23715;DHT22;12036;50.858;4.472;2023-07-08T14:34:29;27.00;99.90
23715;DHT22;12036;50.858;4.472;2023-07-08T14:36:55;27.20;99.90
23715;DHT22;12036;50.858;4.472;2023-07-08T14:39:21;27.20;99.90
23715;DHT22;12036;50.858;4.472;2023-07-08T14:41:49;27.30;99.90
23715;DHT22;12036;50.858;4.472;2023-07-08T14:44:30;27.40;99.90
23715;DHT22;12036;50.858;4.472;2023-07-08T14:46:57;27.40;99.90
23715;DHT22;12036;50.858;4.472;2023-07-08T14:49:24;27.40;99.90
23715;DHT22;12036;50.858;4.472;2023-07-08T14:51:50;27.30;99.90
23715;DHT22;12036;50.858;4.472;2023-07-08T14:54:17;27.30;99.90
23715;DHT22;12036;50.858;4.472;2023-07-08T14:56:43;27.40;99.90
23715;DHT22;12036;50.858;4.472;2023-07-08T14:59:21;27.50;99.90
23715;DHT22;12036;50.858;4.472;2023-07-08T15:01:48;27.50;99.90
23715;DHT22;12036;50.858;4.472;2023-07-08T15:04:16;27.60;99.90
23715;DHT22;12036;50.858;4.472;2023-07-08T15:06:42;27.70;99.90
23715;DHT22;12036;50.858;4.472;2023-07-08T15:09:09;27.80;99.90
23715;DHT22;12036;50.858;4.472;2023-07-08T15:11:36;27.90;99.90
23715;DHT22;12036;50.858;4.472;2023-07-08T15:14:05;28.00;99.90
23715;DHT22;12036;50.858;4.472;2023-07-08T15:16:34;28.10;99.90
23715;DHT22;12036;50.858;4.472;2023-07-08T15:18:59;28.20;99.90
23715;DHT22;12036;50.858;4.472;2023-07-08T15:21:26;28.20;99.90
23715;DHT22;12036;50.858;4.472;2023-07-08T15:23:51;28.30;99.90
23715;DHT22;12036;50.858;4.472;2023-07-08T15:26:17;28.30;99.90
23715;DHT22;12036;50.858;4.472;2023-07-08T15:28:49;28.30;99.90
23715;DHT22;12036;50.858;4.472;2023-07-08T15:31:18;28.30;99.90
23715;DHT22;12036;50.858;4.472;2023-07-08T15:33:45;28.30;99.90
23715;DHT22;12036;50.858;4.472;2023-07-08T15:36:12;28.40;99.90
23715;DHT22;12036;50.858;4.472;2023-07-08T15:38:40;28.50;99.90
23715;DHT22;12036;50.858;4.472;2023-07-08T15:41:20;28.40;99.90
23715;DHT22;12036;50.858;4.472;2023-07-08T15:43:46;28.30;99.90
23715;DHT22;12036;50.858;4.472;2023-07-08T15:46:12;28.40;99.90
23715;DHT22;12036;50.858;4.472;2023-07-08T15:48:38;28.60;99.90
23715;DHT22;12036;50.858;4.472;2023-07-08T15:51:04;28.60;99.90
23715;DHT22;12036;50.858;4.472;2023-07-08T15:53:29;28.50;99.90
23715;DHT22;12036;50.858;4.472;2023-07-08T15:55:55;28.40;99.90
23715;DHT22;12036;50.858;4.472;2023-07-08T15:58:29;28.60;99.90
23715;DHT22;12036;50.858;4.472;2023-07-08T16:01:01;28.80;99.90
23715;DHT22;12036;50.858;4.472;2023-07-08T16:03:32;29.10;99.90
23715;DHT22;12036;50.858;4.472;2023-07-08T16:05:59;29.20;99.90
23715;DHT22;12036;50.858;4.472;2023-07-08T16:08:25;29.20;99.90
23715;DHT22;12036;50.858;4.472;2023-07-08T16:10:57;29.30;99.90
23715;DHT22;12036;50.858;4.472;2023-07-08T16:13:26;29.50;99.90
23715;DHT22;12036;50.858;4.472;2023-07-08T16:15:53;29.60;99.90
23715;DHT22;12036;50.858;4.472;2023-07-08T16:18:19;29.30;99.90
23715;DHT22;12036;50.858;4.472;2023-07-08T16:20:46;29.40;99.90
23715;DHT22;12036;50.858;4.472;2023-07-08T16:23:12;29.50;99.90
23715;DHT22;12036;50.858;4.472;2023-07-08T16:25:41;29.60;99.90
23715;DHT22;12036;50.858;4.472;2023-07-08T16:30:47;29.40;99.90
23715;DHT22;12036;50.858;4.472;2023-07-08T16:33:14;29.40;99.90
23715;DHT22;12036;50.858;4.472;2023-07-08T16:35:40;29.40;99.90
23715;DHT22;12036;50.858;4.472;2023-07-08T16:38:07;29.40;99.90
23715;DHT22;12036;50.858;4.472;2023-07-08T16:40:33;29.20;99.90
23715;DHT22;12036;50.858;4.472;2023-07-08T16:42:59;29.40;99.90
23715;DHT22;12036;50.858;4.472;2023-07-08T16:45:26;29.50;99.90
23715;DHT22;12036;50.858;4.472;2023-07-08T16:47:52;29.60;99.90
23715;DHT22;12036;50.858;4.472;2023-07-08T16:50:22;29.70;99.90
23715;DHT22;12036;50.858;4.472;2023-07-08T16:52:49;29.80;99.90